Terminal Aerodrome Forecast
Issued by NWS

Home | Current Version | Previous Version | Text Only | Print | Product List | Glossary On
Versions: 1 2 3 4 5 6 7 8 9 10 11 12 13 14 15
000
FTUS45 KFGZ 292337
TAFGCN
TAF
KGCN 292337Z 3000/3024 23008KT P6SM SCT090
      TEMPO 3000/3002 VRB15G25KT 5SM -TSRA BKN070CB
     FM300300 VRB05KT P6SM SCT070
     FM301700 23011G17KT P6SM BKN070 PROB30 3017/3023 VRB15G25KT 4SM
      TSRA BKN050CB=

USA.gov is the U.S. government's official web portal to all federal, state and local government web resources and services.